sensor_id;sensor_type;location;lat;lon;timestamp;P1;durP1;ratioP1;P2;durP2;ratioP2
64873;SDS011;51367;45.204;38.576;2022-12-07T00:01:34;5.47;;;4.95;;
64873;SDS011;51367;45.204;38.576;2022-12-07T00:04:04;2.92;;;2.58;;
64873;SDS011;51367;45.204;38.576;2022-12-07T00:06:35;2.80;;;2.58;;
64873;SDS011;51367;45.204;38.576;2022-12-07T00:09:07;2.90;;;2.70;;
64873;SDS011;51367;45.204;38.576;2022-12-07T00:11:35;4.00;;;3.45;;
64873;SDS011;51367;45.204;38.576;2022-12-07T00:14:03;3.33;;;2.58;;
64873;SDS011;51367;45.204;38.576;2022-12-07T00:16:35;4.75;;;3.85;;
64873;SDS011;51367;45.204;38.576;2022-12-07T00:19:02;5.18;;;4.68;;
64873;SDS011;51367;45.204;38.576;2022-12-07T00:21:30;3.60;;;3.15;;
64873;SDS011;51367;45.204;38.576;2022-12-07T00:23:57;2.17;;;2.08;;
64873;SDS011;51367;45.204;38.576;2022-12-07T00:26:25;3.38;;;2.47;;
64873;SDS011;51367;45.204;38.576;2022-12-07T00:28:54;3.80;;;3.40;;
64873;SDS011;51367;45.204;38.576;2022-12-07T00:31:23;4.05;;;3.40;;
64873;SDS011;51367;45.204;38.576;2022-12-07T00:33:51;3.67;;;3.28;;
64873;SDS011;51367;45.204;38.576;2022-12-07T00:36:18;4.25;;;3.30;;
64873;SDS011;51367;45.204;38.576;2022-12-07T00:38:45;3.75;;;2.95;;
64873;SDS011;51367;45.204;38.576;2022-12-07T00:41:16;2.08;;;1.95;;
64873;SDS011;51367;45.204;38.576;2022-12-07T00:43:47;3.42;;;3.08;;
64873;SDS011;51367;45.204;38.576;2022-12-07T00:46:14;4.20;;;3.78;;
64873;SDS011;51367;45.204;38.576;2022-12-07T00:48:41;2.40;;;2.17;;
64873;SDS011;51367;45.204;38.576;2022-12-07T00:51:08;4.85;;;3.20;;
64873;SDS011;51367;45.204;38.576;2022-12-07T00:53:36;3.85;;;3.50;;
64873;SDS011;51367;45.204;38.576;2022-12-07T00:56:06;3.70;;;3.25;;
64873;SDS011;51367;45.204;38.576;2022-12-07T00:58:40;6.13;;;4.32;;
64873;SDS011;51367;45.204;38.576;2022-12-07T01:01:07;4.20;;;3.80;;
64873;SDS011;51367;45.204;38.576;2022-12-07T01:03:34;4.68;;;3.80;;
64873;SDS011;51367;45.204;38.576;2022-12-07T01:06:01;3.47;;;3.17;;
64873;SDS011;51367;45.204;38.576;2022-12-07T01:08:27;6.20;;;4.80;;
64873;SDS011;51367;45.204;38.576;2022-12-07T01:10:58;4.50;;;3.85;;
64873;SDS011;51367;45.204;38.576;2022-12-07T01:13:33;4.60;;;4.20;;
64873;SDS011;51367;45.204;38.576;2022-12-07T01:16:00;4.80;;;4.10;;
64873;SDS011;51367;45.204;38.576;2022-12-07T01:18:29;3.53;;;3.22;;
64873;SDS011;51367;45.204;38.576;2022-12-07T01:21:06;3.72;;;3.42;;
64873;SDS011;51367;45.204;38.576;2022-12-07T01:23:33;3.17;;;2.78;;
64873;SDS011;51367;45.204;38.576;2022-12-07T01:26:03;3.17;;;2.88;;
64873;SDS011;51367;45.204;38.576;2022-12-07T01:28:30;2.55;;;2.35;;
64873;SDS011;51367;45.204;38.576;2022-12-07T01:31:01;1.70;;;1.60;;
64873;SDS011;51367;45.204;38.576;2022-12-07T01:33:28;4.10;;;3.22;;
64873;SDS011;51367;45.204;38.576;2022-12-07T01:38:32;4.00;;;3.60;;
64873;SDS011;51367;45.204;38.576;2022-12-07T01:40:59;2.55;;;1.55;;
64873;SDS011;51367;45.204;38.576;2022-12-07T01:43:28;2.65;;;2.45;;
64873;SDS011;51367;45.204;38.576;2022-12-07T01:45:54;5.40;;;4.28;;
64873;SDS011;51367;45.204;38.576;2022-12-07T01:48:29;3.83;;;3.53;;
64873;SDS011;51367;45.204;38.576;2022-12-07T01:51:04;3.38;;;3.10;;
64873;SDS011;51367;45.204;38.576;2022-12-07T01:53:35;1.77;;;1.60;;
64873;SDS011;51367;45.204;38.576;2022-12-07T01:56:03;3.00;;;2.60;;
64873;SDS011;51367;45.204;38.576;2022-12-07T01:58:31;4.35;;;3.95;;
64873;SDS011;51367;45.204;38.576;2022-12-07T02:00:57;5.57;;;4.07;;
64873;SDS011;51367;45.204;38.576;2022-12-07T02:03:24;3.85;;;3.45;;
64873;SDS011;51367;45.204;38.576;2022-12-07T02:05:56;3.33;;;2.60;;
64873;SDS011;51367;45.204;38.576;2022-12-07T02:08:24;3.80;;;2.63;;
64873;SDS011;51367;45.204;38.576;2022-12-07T02:10:51;5.45;;;4.53;;
64873;SDS011;51367;45.204;38.576;2022-12-07T02:13:21;5.78;;;4.22;;
64873;SDS011;51367;45.204;38.576;2022-12-07T02:15:59;3.30;;;3.00;;
64873;SDS011;51367;45.204;38.576;2022-12-07T02:26:59;3.95;;;3.30;;
64873;SDS011;51367;45.204;38.576;2022-12-07T02:32:45;3.88;;;3.22;;
64873;SDS011;51367;45.204;38.576;2022-12-07T02:35:59;3.42;;;3.13;;
64873;SDS011;51367;45.204;38.576;2022-12-07T02:41:27;2.40;;;2.20;;
64873;SDS011;51367;45.204;38.576;2022-12-07T02:44:25;4.85;;;2.95;;
64873;SDS011;51367;45.204;38.576;2022-12-07T02:46:54;4.68;;;2.60;;
64873;SDS011;51367;45.204;38.576;2022-12-07T02:49:24;5.20;;;4.15;;
64873;SDS011;51367;45.204;38.576;2022-12-07T02:51:52;3.58;;;3.25;;
64873;SDS011;51367;45.204;38.576;2022-12-07T02:54:19;3.72;;;3.42;;
64873;SDS011;51367;45.204;38.576;2022-12-07T03:10:41;27.02;;;6.75;;
64873;SDS011;51367;45.204;38.576;2022-12-07T03:16:21;4.75;;;4.18;;
64873;SDS011;51367;45.204;38.576;2022-12-07T03:18:52;3.47;;;3.17;;
64873;SDS011;51367;45.204;38.576;2022-12-07T03:21:23;21.85;;;7.50;;
64873;SDS011;51367;45.204;38.576;2022-12-07T03:23:58;2.65;;;2.45;;
64873;SDS011;51367;45.204;38.576;2022-12-07T03:26:34;4.35;;;3.78;;
64873;SDS011;51367;45.204;38.576;2022-12-07T03:29:05;2.25;;;1.65;;
64873;SDS011;51367;45.204;38.576;2022-12-07T03:31:40;2.28;;;2.03;;
64873;SDS011;51367;45.204;38.576;2022-12-07T03:34:18;3.88;;;3.03;;
64873;SDS011;51367;45.204;38.576;2022-12-07T03:36:54;1.88;;;1.77;;
64873;SDS011;51367;45.204;38.576;2022-12-07T03:39:41;3.08;;;2.80;;
64873;SDS011;51367;45.204;38.576;2022-12-07T03:42:28;7.32;;;5.05;;
64873;SDS011;51367;45.204;38.576;2022-12-07T03:44:56;4.25;;;3.80;;
64873;SDS011;51367;45.204;38.576;2022-12-07T03:50:34;8.23;;;4.97;;
64873;SDS011;51367;45.204;38.576;2022-12-07T03:53:11;3.25;;;2.95;;
64873;SDS011;51367;45.204;38.576;2022-12-07T03:55:43;3.97;;;3.30;;
64873;SDS011;51367;45.204;38.576;2022-12-07T03:58:12;4.25;;;3.85;;
64873;SDS011;51367;45.204;38.576;2022-12-07T04:00:42;4.43;;;4.03;;
64873;SDS011;51367;45.204;38.576;2022-12-07T04:03:09;4.93;;;3.97;;
64873;SDS011;51367;45.204;38.576;2022-12-07T04:05:36;4.20;;;3.28;;
64873;SDS011;51367;45.204;38.576;2022-12-07T04:08:03;4.47;;;3.90;;
64873;SDS011;51367;45.204;38.576;2022-12-07T04:10:30;3.90;;;3.05;;
64873;SDS011;51367;45.204;38.576;2022-12-07T04:12:56;3.03;;;2.67;;
64873;SDS011;51367;45.204;38.576;2022-12-07T04:15:22;5.82;;;4.50;;
64873;SDS011;51367;45.204;38.576;2022-12-07T04:17:48;3.58;;;3.25;;
64873;SDS011;51367;45.204;38.576;2022-12-07T04:20:15;2.13;;;2.00;;
64873;SDS011;51367;45.204;38.576;2022-12-07T04:22:41;2.92;;;2.50;;
64873;SDS011;51367;45.204;38.576;2022-12-07T04:25:07;2.72;;;2.53;;
64873;SDS011;51367;45.204;38.576;2022-12-07T04:27:33;3.17;;;2.88;;
64873;SDS011;51367;45.204;38.576;2022-12-07T04:29:59;5.82;;;4.60;;
64873;SDS011;51367;45.204;38.576;2022-12-07T04:32:25;12.73;;;2.88;;
64873;SDS011;51367;45.204;38.576;2022-12-07T04:34:51;3.50;;;3.20;;
64873;SDS011;51367;45.204;38.576;2022-12-07T04:37:17;8.32;;;5.70;;
64873;SDS011;51367;45.204;38.576;2022-12-07T04:39:43;3.80;;;3.40;;
64873;SDS011;51367;45.204;38.576;2022-12-07T04:42:12;3.50;;;3.20;;
64873;SDS011;51367;45.204;38.576;2022-12-07T04:44:38;4.65;;;4.25;;
64873;SDS011;51367;45.204;38.576;2022-12-07T04:59:36;4.30;;;3.63;;
64873;SDS011;51367;45.204;38.576;2022-12-07T05:12:08;3.55;;;3.13;;
64873;SDS011;51367;45.204;38.576;2022-12-07T05:14:52;4.13;;;3.72;;
64873;SDS011;51367;45.204;38.576;2022-12-07T05:17:18;4.93;;;4.38;;
64873;SDS011;51367;45.204;38.576;2022-12-07T05:19:44;6.43;;;4.28;;
64873;SDS011;51367;45.204;38.576;2022-12-07T05:22:10;7.38;;;5.63;;
64873;SDS011;51367;45.204;38.576;2022-12-07T05:24:36;4.85;;;4.40;;
64873;SDS011;51367;45.204;38.576;2022-12-07T05:27:02;4.43;;;3.35;;
64873;SDS011;51367;45.204;38.576;2022-12-07T05:29:28;6.63;;;5.20;;
64873;SDS011;51367;45.204;38.576;2022-12-07T05:31:54;4.75;;;4.30;;
64873;SDS011;51367;45.204;38.576;2022-12-07T05:34:20;5.10;;;3.95;;
64873;SDS011;51367;45.204;38.576;2022-12-07T05:36:46;3.08;;;2.78;;
64873;SDS011;51367;45.204;38.576;2022-12-07T05:39:12;4.35;;;3.95;;
64873;SDS011;51367;45.204;38.576;2022-12-07T05:41:38;3.90;;;3.35;;
64873;SDS011;51367;45.204;38.576;2022-12-07T05:44:22;6.47;;;5.68;;
64873;SDS011;51367;45.204;38.576;2022-12-07T05:46:48;1.70;;;1.60;;
64873;SDS011;51367;45.204;38.576;2022-12-07T05:49:14;3.08;;;2.45;;
64873;SDS011;51367;45.204;38.576;2022-12-07T05:51:40;7.13;;;5.50;;
64873;SDS011;51367;45.204;38.576;2022-12-07T05:54:07;2.80;;;2.60;;
64873;SDS011;51367;45.204;38.576;2022-12-07T05:56:33;2.22;;;2.03;;
64873;SDS011;51367;45.204;38.576;2022-12-07T05:58:59;3.00;;;2.72;;
64873;SDS011;51367;45.204;38.576;2022-12-07T06:01:43;3.28;;;3.05;;
64873;SDS011;51367;45.204;38.576;2022-12-07T06:04:09;3.28;;;3.03;;
64873;SDS011;51367;45.204;38.576;2022-12-07T06:06:35;5.05;;;3.78;;
64873;SDS011;51367;45.204;38.576;2022-12-07T06:09:02;4.47;;;2.03;;
64873;SDS011;51367;45.204;38.576;2022-12-07T06:11:29;3.20;;;2.88;;
64873;SDS011;51367;45.204;38.576;2022-12-07T06:14:13;1.58;;;1.45;;
64873;SDS011;51367;45.204;38.576;2022-12-07T06:16:39;7.95;;;4.70;;
64873;SDS011;51367;45.204;38.576;2022-12-07T06:19:05;2.97;;;2.55;;
64873;SDS011;51367;45.204;38.576;2022-12-07T06:21:31;6.30;;;3.05;;
64873;SDS011;51367;45.204;38.576;2022-12-07T06:23:57;2.83;;;2.63;;
64873;SDS011;51367;45.204;38.576;2022-12-07T06:26:23;2.47;;;2.28;;
64873;SDS011;51367;45.204;38.576;2022-12-07T06:28:49;3.22;;;2.97;;
64873;SDS011;51367;45.204;38.576;2022-12-07T06:31:15;4.38;;;3.97;;
64873;SDS011;51367;45.204;38.576;2022-12-07T06:33:41;3.38;;;2.92;;
64873;SDS011;51367;45.204;38.576;2022-12-07T06:36:08;2.40;;;2.20;;
64873;SDS011;51367;45.204;38.576;2022-12-07T06:38:34;3.38;;;2.75;;
64873;SDS011;51367;45.204;38.576;2022-12-07T06:41:00;5.15;;;4.68;;
64873;SDS011;51367;45.204;38.576;2022-12-07T06:43:26;3.60;;;3.30;;
64873;SDS011;51367;45.204;38.576;2022-12-07T06:45:52;6.35;;;4.03;;
64873;SDS011;51367;45.204;38.576;2022-12-07T06:48:19;7.05;;;4.32;;
64873;SDS011;51367;45.204;38.576;2022-12-07T06:50:45;5.63;;;4.47;;
64873;SDS011;51367;45.204;38.576;2022-12-07T06:53:11;6.72;;;5.05;;
64873;SDS011;51367;45.204;38.576;2022-12-07T06:55:37;3.92;;;3.08;;
64873;SDS011;51367;45.204;38.576;2022-12-07T06:58:03;5.75;;;5.20;;
64873;SDS011;51367;45.204;38.576;2022-12-07T07:00:29;4.25;;;3.85;;
64873;SDS011;51367;45.204;38.576;2022-12-07T07:02:56;5.53;;;4.75;;
64873;SDS011;51367;45.204;38.576;2022-12-07T07:05:22;5.45;;;4.30;;
64873;SDS011;51367;45.204;38.576;2022-12-07T07:07:51;5.93;;;4.50;;
64873;SDS011;51367;45.204;38.576;2022-12-07T07:10:17;5.20;;;4.80;;
64873;SDS011;51367;45.204;38.576;2022-12-07T07:12:43;3.95;;;3.65;;
64873;SDS011;51367;45.204;38.576;2022-12-07T07:15:09;5.55;;;5.05;;
64873;SDS011;51367;45.204;38.576;2022-12-07T07:17:37;6.32;;;4.90;;
64873;SDS011;51367;45.204;38.576;2022-12-07T07:20:03;4.53;;;4.03;;
64873;SDS011;51367;45.204;38.576;2022-12-07T07:22:30;7.80;;;4.95;;
64873;SDS011;51367;45.204;38.576;2022-12-07T07:24:56;7.28;;;6.28;;
64873;SDS011;51367;45.204;38.576;2022-12-07T07:27:22;4.18;;;3.78;;
64873;SDS011;51367;45.204;38.576;2022-12-07T07:29:48;7.50;;;4.78;;
64873;SDS011;51367;45.204;38.576;2022-12-07T07:32:14;4.45;;;3.58;;
64873;SDS011;51367;45.204;38.576;2022-12-07T07:34:40;4.35;;;3.92;;
64873;SDS011;51367;45.204;38.576;2022-12-07T07:37:06;8.77;;;6.00;;
64873;SDS011;51367;45.204;38.576;2022-12-07T07:39:32;4.60;;;4.20;;
64873;SDS011;51367;45.204;38.576;2022-12-07T07:41:58;4.28;;;3.38;;
64873;SDS011;51367;45.204;38.576;2022-12-07T07:44:26;5.63;;;3.97;;
64873;SDS011;51367;45.204;38.576;2022-12-07T07:46:52;6.13;;;5.35;;
64873;SDS011;51367;45.204;38.576;2022-12-07T07:49:18;6.63;;;5.35;;
64873;SDS011;51367;45.204;38.576;2022-12-07T07:51:43;5.22;;;4.13;;
64873;SDS011;51367;45.204;38.576;2022-12-07T07:54:09;5.38;;;4.88;;
64873;SDS011;51367;45.204;38.576;2022-12-07T07:56:35;4.85;;;4.10;;
64873;SDS011;51367;45.204;38.576;2022-12-07T07:59:01;9.77;;;6.60;;
64873;SDS011;51367;45.204;38.576;2022-12-07T08:01:27;9.40;;;6.45;;
64873;SDS011;51367;45.204;38.576;2022-12-07T08:03:53;7.00;;;6.05;;
64873;SDS011;51367;45.204;38.576;2022-12-07T08:06:19;3.97;;;3.45;;
64873;SDS011;51367;45.204;38.576;2022-12-07T08:08:45;6.70;;;5.82;;
64873;SDS011;51367;45.204;38.576;2022-12-07T08:11:11;5.00;;;3.58;;
64873;SDS011;51367;45.204;38.576;2022-12-07T08:13:37;4.28;;;3.25;;
64873;SDS011;51367;45.204;38.576;2022-12-07T08:16:04;4.07;;;3.75;;
64873;SDS011;51367;45.204;38.576;2022-12-07T08:18:34;3.15;;;2.85;;
64873;SDS011;51367;45.204;38.576;2022-12-07T08:21:02;6.28;;;5.43;;
64873;SDS011;51367;45.204;38.576;2022-12-07T08:23:29;2.33;;;2.13;;
64873;SDS011;51367;45.204;38.576;2022-12-07T08:25:59;7.97;;;6.45;;
64873;SDS011;51367;45.204;38.576;2022-12-07T08:28:32;5.95;;;5.20;;
64873;SDS011;51367;45.204;38.576;2022-12-07T08:31:02;5.47;;;3.88;;
64873;SDS011;51367;45.204;38.576;2022-12-07T08:33:29;4.28;;;3.88;;
64873;SDS011;51367;45.204;38.576;2022-12-07T08:35:59;6.43;;;5.50;;
64873;SDS011;51367;45.204;38.576;2022-12-07T08:38:27;9.43;;;5.47;;
64873;SDS011;51367;45.204;38.576;2022-12-07T08:40:56;4.30;;;3.75;;
64873;SDS011;51367;45.204;38.576;2022-12-07T08:43:22;7.13;;;4.15;;
64873;SDS011;51367;45.204;38.576;2022-12-07T08:45:51;3.38;;;3.08;;
64873;SDS011;51367;45.204;38.576;2022-12-07T08:48:34;9.98;;;6.88;;
64873;SDS011;51367;45.204;38.576;2022-12-07T08:51:04;6.13;;;5.53;;
64873;SDS011;51367;45.204;38.576;2022-12-07T08:53:30;4.78;;;3.50;;
64873;SDS011;51367;45.204;38.576;2022-12-07T08:55:57;9.85;;;4.82;;
64873;SDS011;51367;45.204;38.576;2022-12-07T08:58:23;7.60;;;6.53;;
64873;SDS011;51367;45.204;38.576;2022-12-07T09:00:49;5.72;;;5.13;;
64873;SDS011;51367;45.204;38.576;2022-12-07T09:03:16;4.28;;;3.90;;
64873;SDS011;51367;45.204;38.576;2022-12-07T09:05:41;7.57;;;6.68;;
64873;SDS011;51367;45.204;38.576;2022-12-07T09:08:07;4.40;;;4.00;;
64873;SDS011;51367;45.204;38.576;2022-12-07T09:10:34;6.90;;;6.05;;
64873;SDS011;51367;45.204;38.576;2022-12-07T09:13:00;7.45;;;5.25;;
64873;SDS011;51367;45.204;38.576;2022-12-07T09:15:26;21.30;;;7.32;;
64873;SDS011;51367;45.204;38.576;2022-12-07T09:17:53;8.13;;;6.22;;
64873;SDS011;51367;45.204;38.576;2022-12-07T09:20:19;7.25;;;6.22;;
64873;SDS011;51367;45.204;38.576;2022-12-07T09:22:45;5.93;;;5.22;;
64873;SDS011;51367;45.204;38.576;2022-12-07T09:25:12;7.68;;;6.00;;
64873;SDS011;51367;45.204;38.576;2022-12-07T09:27:38;6.95;;;6.22;;
64873;SDS011;51367;45.204;38.576;2022-12-07T09:30:04;7.32;;;6.22;;
64873;SDS011;51367;45.204;38.576;2022-12-07T09:32:31;7.90;;;6.80;;
64873;SDS011;51367;45.204;38.576;2022-12-07T09:34:57;8.30;;;6.97;;
64873;SDS011;51367;45.204;38.576;2022-12-07T09:37:23;7.72;;;5.32;;
64873;SDS011;51367;45.204;38.576;2022-12-07T09:39:49;4.75;;;4.28;;
64873;SDS011;51367;45.204;38.576;2022-12-07T09:42:24;5.68;;;5.18;;
64873;SDS011;51367;45.204;38.576;2022-12-07T09:44:52;7.85;;;6.57;;
64873;SDS011;51367;45.204;38.576;2022-12-07T09:47:18;5.88;;;5.05;;
64873;SDS011;51367;45.204;38.576;2022-12-07T09:49:44;8.00;;;5.47;;
64873;SDS011;51367;45.204;38.576;2022-12-07T09:52:17;6.60;;;6.00;;
64873;SDS011;51367;45.204;38.576;2022-12-07T09:54:50;8.80;;;7.72;;
64873;SDS011;51367;45.204;38.576;2022-12-07T09:57:17;19.23;;;7.10;;
64873;SDS011;51367;45.204;38.576;2022-12-07T09:59:45;7.45;;;6.05;;
64873;SDS011;51367;45.204;38.576;2022-12-07T10:04:56;7.10;;;6.40;;
64873;SDS011;51367;45.204;38.576;2022-12-07T10:07:23;5.15;;;4.38;;
64873;SDS011;51367;45.204;38.576;2022-12-07T10:09:49;8.93;;;6.47;;
64873;SDS011;51367;45.204;38.576;2022-12-07T10:12:16;4.45;;;4.05;;
64873;SDS011;51367;45.204;38.576;2022-12-07T10:14:55;6.35;;;5.75;;
64873;SDS011;51367;45.204;38.576;2022-12-07T10:20:12;4.03;;;3.60;;
64873;SDS011;51367;45.204;38.576;2022-12-07T10:22:54;5.85;;;5.25;;
64873;SDS011;51367;45.204;38.576;2022-12-07T10:25:35;7.70;;;6.88;;
64873;SDS011;51367;45.204;38.576;2022-12-07T10:30:32;11.55;;;6.43;;
64873;SDS011;51367;45.204;38.576;2022-12-07T10:32:58;8.13;;;7.15;;
64873;SDS011;51367;45.204;38.576;2022-12-07T10:35:26;11.60;;;6.47;;
64873;SDS011;51367;45.204;38.576;2022-12-07T10:37:56;12.32;;;6.82;;
64873;SDS011;51367;45.204;38.576;2022-12-07T10:40:28;6.03;;;5.25;;
64873;SDS011;51367;45.204;38.576;2022-12-07T10:54:15;6.15;;;5.55;;
64873;SDS011;51367;45.204;38.576;2022-12-07T10:56:55;7.78;;;5.38;;
64873;SDS011;51367;45.204;38.576;2022-12-07T11:02:52;6.25;;;5.65;;
64873;SDS011;51367;45.204;38.576;2022-12-07T11:16:23;4.90;;;4.50;;
64873;SDS011;51367;45.204;38.576;2022-12-07T11:21:57;6.55;;;5.95;;
64873;SDS011;51367;45.204;38.576;2022-12-07T11:24:40;3.70;;;3.40;;
64873;SDS011;51367;45.204;38.576;2022-12-07T11:27:44;4.47;;;4.07;;
64873;SDS011;51367;45.204;38.576;2022-12-07T11:30:22;14.10;;;3.95;;
64873;SDS011;51367;45.204;38.576;2022-12-07T11:32:56;7.53;;;5.47;;
64873;SDS011;51367;45.204;38.576;2022-12-07T11:38:09;6.90;;;5.93;;
64873;SDS011;51367;45.204;38.576;2022-12-07T11:40:36;5.68;;;4.78;;
64873;SDS011;51367;45.204;38.576;2022-12-07T11:45:33;7.75;;;5.53;;
64873;SDS011;51367;45.204;38.576;2022-12-07T11:48:01;6.97;;;5.63;;
64873;SDS011;51367;45.204;38.576;2022-12-07T11:53:01;5.85;;;4.65;;
64873;SDS011;51367;45.204;38.576;2022-12-07T11:55:50;7.25;;;5.22;;
64873;SDS011;51367;45.204;38.576;2022-12-07T12:00:55;7.20;;;5.32;;
64873;SDS011;51367;45.204;38.576;2022-12-07T12:03:45;7.50;;;6.63;;
64873;SDS011;51367;45.204;38.576;2022-12-07T12:06:20;7.50;;;5.57;;
64873;SDS011;51367;45.204;38.576;2022-12-07T12:08:53;4.43;;;4.03;;
64873;SDS011;51367;45.204;38.576;2022-12-07T12:14:46;7.63;;;6.88;;
64873;SDS011;51367;45.204;38.576;2022-12-07T12:20:00;8.00;;;6.95;;
64873;SDS011;51367;45.204;38.576;2022-12-07T12:22:33;11.48;;;8.15;;
64873;SDS011;51367;45.204;38.576;2022-12-07T12:25:07;11.00;;;8.68;;
64873;SDS011;51367;45.204;38.576;2022-12-07T12:28:00;8.90;;;7.85;;
64873;SDS011;51367;45.204;38.576;2022-12-07T12:33:03;9.20;;;5.78;;
64873;SDS011;51367;45.204;38.576;2022-12-07T12:35:37;9.77;;;6.70;;
64873;SDS011;51367;45.204;38.576;2022-12-07T12:38:47;7.97;;;6.43;;
64873;SDS011;51367;45.204;38.576;2022-12-07T12:40:59;8.75;;;4.88;;
64873;SDS011;51367;45.204;38.576;2022-12-07T12:51:47;7.60;;;4.38;;
64873;SDS011;51367;45.204;38.576;2022-12-07T12:54:32;5.32;;;4.82;;
64873;SDS011;51367;45.204;38.576;2022-12-07T13:00:30;6.45;;;5.03;;
64873;SDS011;51367;45.204;38.576;2022-12-07T13:05:25;4.30;;;3.90;;
64873;SDS011;51367;45.204;38.576;2022-12-07T13:08:02;5.55;;;4.50;;
64873;SDS011;51367;45.204;38.576;2022-12-07T13:10:40;10.02;;;5.07;;
64873;SDS011;51367;45.204;38.576;2022-12-07T13:15:53;6.38;;;4.75;;
64873;SDS011;51367;45.204;38.576;2022-12-07T13:20:53;5.50;;;4.93;;
64873;SDS011;51367;45.204;38.576;2022-12-07T13:26:12;5.38;;;4.88;;
64873;SDS011;51367;45.204;38.576;2022-12-07T13:28:42;7.53;;;6.13;;
64873;SDS011;51367;45.204;38.576;2022-12-07T13:34:02;6.68;;;6.03;;
64873;SDS011;51367;45.204;38.576;2022-12-07T13:36:31;11.60;;;7.30;;
64873;SDS011;51367;45.204;38.576;2022-12-07T13:39:11;7.18;;;5.75;;
64873;SDS011;51367;45.204;38.576;2022-12-07T13:44:15;10.90;;;5.22;;
64873;SDS011;51367;45.204;38.576;2022-12-07T13:49:31;5.43;;;4.82;;
64873;SDS011;51367;45.204;38.576;2022-12-07T13:54:45;5.15;;;4.53;;
64873;SDS011;51367;45.204;38.576;2022-12-07T13:57:27;3.15;;;2.88;;
64873;SDS011;51367;45.204;38.576;2022-12-07T14:00:00;4.25;;;3.92;;
64873;SDS011;51367;45.204;38.576;2022-12-07T14:02:31;5.93;;;4.13;;
64873;SDS011;51367;45.204;38.576;2022-12-07T14:16:22;5.15;;;4.63;;
64873;SDS011;51367;45.204;38.576;2022-12-07T14:18:53;15.45;;;4.43;;
64873;SDS011;51367;45.204;38.576;2022-12-07T14:21:21;6.25;;;4.15;;
64873;SDS011;51367;45.204;38.576;2022-12-07T14:24:09;5.85;;;4.60;;
64873;SDS011;51367;45.204;38.576;2022-12-07T14:26:46;6.47;;;4.70;;
64873;SDS011;51367;45.204;38.576;2022-12-07T14:31:52;4.45;;;4.07;;
64873;SDS011;51367;45.204;38.576;2022-12-07T14:34:20;5.22;;;3.92;;
64873;SDS011;51367;45.204;38.576;2022-12-07T14:36:46;8.10;;;4.07;;
64873;SDS011;51367;45.204;38.576;2022-12-07T14:39:13;5.53;;;3.33;;
64873;SDS011;51367;45.204;38.576;2022-12-07T14:41:39;6.40;;;5.28;;
64873;SDS011;51367;45.204;38.576;2022-12-07T14:44:18;8.48;;;5.10;;
64873;SDS011;51367;45.204;38.576;2022-12-07T14:46:46;8.07;;;6.90;;
64873;SDS011;51367;45.204;38.576;2022-12-07T14:49:13;6.57;;;5.38;;
64873;SDS011;51367;45.204;38.576;2022-12-07T14:51:39;5.55;;;4.35;;
64873;SDS011;51367;45.204;38.576;2022-12-07T14:54:07;4.20;;;3.80;;
64873;SDS011;51367;45.204;38.576;2022-12-07T14:56:41;4.05;;;3.70;;
64873;SDS011;51367;45.204;38.576;2022-12-07T14:59:07;11.48;;;5.07;;
64873;SDS011;51367;45.204;38.576;2022-12-07T15:01:33;4.47;;;4.05;;
64873;SDS011;51367;45.204;38.576;2022-12-07T15:03:59;6.00;;;5.22;;
64873;SDS011;51367;45.204;38.576;2022-12-07T15:06:25;3.67;;;3.40;;
64873;SDS011;51367;45.204;38.576;2022-12-07T15:08:51;4.65;;;4.20;;
64873;SDS011;51367;45.204;38.576;2022-12-07T15:11:17;7.32;;;5.80;;
64873;SDS011;51367;45.204;38.576;2022-12-07T15:13:43;6.05;;;5.38;;
64873;SDS011;51367;45.204;38.576;2022-12-07T15:16:28;6.03;;;4.63;;
64873;SDS011;51367;45.204;38.576;2022-12-07T15:18:54;5.53;;;4.88;;
64873;SDS011;51367;45.204;38.576;2022-12-07T15:21:20;4.05;;;3.75;;
64873;SDS011;51367;45.204;38.576;2022-12-07T15:23:46;4.32;;;3.65;;
64873;SDS011;51367;45.204;38.576;2022-12-07T15:26:13;4.22;;;3.30;;
64873;SDS011;51367;45.204;38.576;2022-12-07T15:28:40;7.07;;;3.38;;
64873;SDS011;51367;45.204;38.576;2022-12-07T15:31:13;5.85;;;5.20;;
64873;SDS011;51367;45.204;38.576;2022-12-07T15:33:40;5.05;;;4.63;;
64873;SDS011;51367;45.204;38.576;2022-12-07T15:36:06;5.75;;;4.82;;
64873;SDS011;51367;45.204;38.576;2022-12-07T15:38:32;5.25;;;4.85;;
64873;SDS011;51367;45.204;38.576;2022-12-07T15:40:58;4.80;;;4.30;;
64873;SDS011;51367;45.204;38.576;2022-12-07T15:43:24;7.75;;;5.95;;
64873;SDS011;51367;45.204;38.576;2022-12-07T15:46:09;9.48;;;7.68;;
64873;SDS011;51367;45.204;38.576;2022-12-07T15:48:35;12.70;;;8.82;;
64873;SDS011;51367;45.204;38.576;2022-12-07T15:51:02;9.15;;;7.55;;
64873;SDS011;51367;45.204;38.576;2022-12-07T15:53:32;11.07;;;7.40;;
64873;SDS011;51367;45.204;38.576;2022-12-07T15:55:58;8.50;;;6.13;;
64873;SDS011;51367;45.204;38.576;2022-12-07T15:58:24;9.00;;;6.28;;
64873;SDS011;51367;45.204;38.576;2022-12-07T16:00:51;7.15;;;5.68;;
64873;SDS011;51367;45.204;38.576;2022-12-07T16:03:17;9.30;;;5.63;;
64873;SDS011;51367;45.204;38.576;2022-12-07T16:05:48;6.18;;;5.43;;
64873;SDS011;51367;45.204;38.576;2022-12-07T16:08:15;5.65;;;5.15;;
64873;SDS011;51367;45.204;38.576;2022-12-07T16:10:41;6.55;;;5.00;;
64873;SDS011;51367;45.204;38.576;2022-12-07T16:13:11;11.15;;;6.93;;
64873;SDS011;51367;45.204;38.576;2022-12-07T16:15:41;6.82;;;5.80;;
64873;SDS011;51367;45.204;38.576;2022-12-07T16:18:08;8.00;;;7.10;;
64873;SDS011;51367;45.204;38.576;2022-12-07T16:20:34;7.10;;;4.95;;
64873;SDS011;51367;45.204;38.576;2022-12-07T16:23:00;12.38;;;7.65;;
64873;SDS011;51367;45.204;38.576;2022-12-07T16:25:26;7.20;;;5.85;;
64873;SDS011;51367;45.204;38.576;2022-12-07T16:27:52;8.10;;;6.85;;
64873;SDS011;51367;45.204;38.576;2022-12-07T16:30:18;5.40;;;3.78;;
64873;SDS011;51367;45.204;38.576;2022-12-07T16:32:44;5.93;;;5.38;;
64873;SDS011;51367;45.204;38.576;2022-12-07T16:35:11;10.85;;;7.22;;
64873;SDS011;51367;45.204;38.576;2022-12-07T16:37:37;7.90;;;7.07;;
64873;SDS011;51367;45.204;38.576;2022-12-07T16:40:04;12.85;;;8.55;;
64873;SDS011;51367;45.204;38.576;2022-12-07T16:42:34;10.00;;;8.18;;
64873;SDS011;51367;45.204;38.576;2022-12-07T16:45:00;9.05;;;7.07;;
64873;SDS011;51367;45.204;38.576;2022-12-07T16:47:27;6.72;;;5.50;;
64873;SDS011;51367;45.204;38.576;2022-12-07T16:49:53;13.25;;;7.65;;
64873;SDS011;51367;45.204;38.576;2022-12-07T16:52:20;6.93;;;6.07;;
64873;SDS011;51367;45.204;38.576;2022-12-07T16:54:47;9.07;;;6.78;;
64873;SDS011;51367;45.204;38.576;2022-12-07T16:57:14;9.68;;;6.93;;
64873;SDS011;51367;45.204;38.576;2022-12-07T16:59:41;11.02;;;6.53;;
64873;SDS011;51367;45.204;38.576;2022-12-07T17:02:08;5.80;;;5.15;;
64873;SDS011;51367;45.204;38.576;2022-12-07T17:04:36;8.40;;;5.57;;
64873;SDS011;51367;45.204;38.576;2022-12-07T17:07:05;6.05;;;5.20;;
64873;SDS011;51367;45.204;38.576;2022-12-07T17:09:31;7.93;;;6.18;;
64873;SDS011;51367;45.204;38.576;2022-12-07T17:11:57;5.95;;;5.35;;
64873;SDS011;51367;45.204;38.576;2022-12-07T17:14:23;6.85;;;5.13;;
64873;SDS011;51367;45.204;38.576;2022-12-07T17:17:07;6.97;;;5.97;;
64873;SDS011;51367;45.204;38.576;2022-12-07T17:19:33;7.32;;;5.63;;
64873;SDS011;51367;45.204;38.576;2022-12-07T17:21:59;8.25;;;6.43;;
64873;SDS011;51367;45.204;38.576;2022-12-07T17:24:25;8.18;;;5.72;;
64873;SDS011;51367;45.204;38.576;2022-12-07T17:26:51;7.93;;;5.32;;
64873;SDS011;51367;45.204;38.576;2022-12-07T17:29:18;4.95;;;4.03;;